sensor_id;sensor_type;location;lat;lon;timestamp;P1;durP1;ratioP1;P2;durP2;ratioP2
12385;SDS011;6257;57.634;18.310;2023-01-29T00:00:33;2.50;;;1.20;;
12385;SDS011;6257;57.634;18.310;2023-01-29T00:03:00;1.30;;;0.90;;
12385;SDS011;6257;57.634;18.310;2023-01-29T00:05:27;3.33;;;1.10;;
12385;SDS011;6257;57.634;18.310;2023-01-29T00:07:54;4.73;;;1.30;;
12385;SDS011;6257;57.634;18.310;2023-01-29T00:10:21;3.17;;;1.40;;
12385;SDS011;6257;57.634;18.310;2023-01-29T00:12:48;3.20;;;1.20;;
12385;SDS011;6257;57.634;18.310;2023-01-29T00:15:17;2.83;;;1.30;;
12385;SDS011;6257;57.634;18.310;2023-01-29T00:17:46;2.73;;;1.20;;
12385;SDS011;6257;57.634;18.310;2023-01-29T00:20:13;5.03;;;1.23;;
12385;SDS011;6257;57.634;18.310;2023-01-29T00:22:40;1.97;;;1.13;;
12385;SDS011;6257;57.634;18.310;2023-01-29T00:25:08;4.57;;;1.20;;
12385;SDS011;6257;57.634;18.310;2023-01-29T00:27:35;2.00;;;1.20;;
12385;SDS011;6257;57.634;18.310;2023-01-29T00:30:02;2.57;;;1.20;;
12385;SDS011;6257;57.634;18.310;2023-01-29T00:32:40;3.67;;;1.30;;
12385;SDS011;6257;57.634;18.310;2023-01-29T00:35:09;3.53;;;1.20;;
12385;SDS011;6257;57.634;18.310;2023-01-29T00:37:36;2.90;;;1.17;;
12385;SDS011;6257;57.634;18.310;2023-01-29T00:40:03;4.20;;;1.40;;
12385;SDS011;6257;57.634;18.310;2023-01-29T00:42:31;3.07;;;1.30;;
12385;SDS011;6257;57.634;18.310;2023-01-29T00:45:16;4.57;;;1.50;;
12385;SDS011;6257;57.634;18.310;2023-01-29T00:47:43;2.30;;;1.30;;
12385;SDS011;6257;57.634;18.310;2023-01-29T00:50:11;3.00;;;1.50;;
12385;SDS011;6257;57.634;18.310;2023-01-29T00:52:38;3.60;;;1.40;;
12385;SDS011;6257;57.634;18.310;2023-01-29T00:55:06;1.87;;;1.00;;
12385;SDS011;6257;57.634;18.310;2023-01-29T00:57:34;3.17;;;1.30;;
12385;SDS011;6257;57.634;18.310;2023-01-29T01:00:02;3.10;;;1.37;;
12385;SDS011;6257;57.634;18.310;2023-01-29T01:02:30;2.47;;;1.33;;
12385;SDS011;6257;57.634;18.310;2023-01-29T01:05:16;2.83;;;1.00;;
12385;SDS011;6257;57.634;18.310;2023-01-29T01:07:44;2.70;;;1.27;;
12385;SDS011;6257;57.634;18.310;2023-01-29T01:10:12;2.93;;;1.00;;
12385;SDS011;6257;57.634;18.310;2023-01-29T01:12:46;1.90;;;1.13;;
12385;SDS011;6257;57.634;18.310;2023-01-29T01:15:16;1.50;;;1.00;;
12385;SDS011;6257;57.634;18.310;2023-01-29T01:17:43;1.30;;;0.93;;
12385;SDS011;6257;57.634;18.310;2023-01-29T01:20:10;3.27;;;1.37;;
12385;SDS011;6257;57.634;18.310;2023-01-29T01:22:39;1.47;;;0.93;;
12385;SDS011;6257;57.634;18.310;2023-01-29T01:25:07;2.40;;;1.20;;
12385;SDS011;6257;57.634;18.310;2023-01-29T01:27:34;4.43;;;0.93;;
12385;SDS011;6257;57.634;18.310;2023-01-29T01:30:06;2.47;;;1.13;;
12385;SDS011;6257;57.634;18.310;2023-01-29T01:32:34;2.10;;;1.00;;
12385;SDS011;6257;57.634;18.310;2023-01-29T01:35:01;1.03;;;0.90;;
12385;SDS011;6257;57.634;18.310;2023-01-29T01:37:29;2.73;;;1.30;;
12385;SDS011;6257;57.634;18.310;2023-01-29T01:39:57;3.50;;;1.27;;
12385;SDS011;6257;57.634;18.310;2023-01-29T01:42:26;2.97;;;1.10;;
12385;SDS011;6257;57.634;18.310;2023-01-29T01:44:57;3.57;;;1.20;;
12385;SDS011;6257;57.634;18.310;2023-01-29T01:47:29;2.60;;;1.00;;
12385;SDS011;6257;57.634;18.310;2023-01-29T01:50:00;4.27;;;1.50;;
12385;SDS011;6257;57.634;18.310;2023-01-29T01:52:32;3.20;;;1.10;;
12385;SDS011;6257;57.634;18.310;2023-01-29T01:55:05;3.20;;;1.40;;
12385;SDS011;6257;57.634;18.310;2023-01-29T01:57:34;3.13;;;1.17;;
12385;SDS011;6257;57.634;18.310;2023-01-29T02:00:03;3.50;;;1.40;;
12385;SDS011;6257;57.634;18.310;2023-01-29T02:02:36;3.63;;;1.20;;
12385;SDS011;6257;57.634;18.310;2023-01-29T02:05:22;2.90;;;0.93;;
12385;SDS011;6257;57.634;18.310;2023-01-29T02:08:07;2.00;;;1.00;;
12385;SDS011;6257;57.634;18.310;2023-01-29T02:10:53;4.10;;;1.20;;
12385;SDS011;6257;57.634;18.310;2023-01-29T02:13:21;3.90;;;1.30;;
12385;SDS011;6257;57.634;18.310;2023-01-29T02:15:49;5.30;;;1.73;;
12385;SDS011;6257;57.634;18.310;2023-01-29T02:18:16;3.00;;;1.40;;
12385;SDS011;6257;57.634;18.310;2023-01-29T02:20:47;2.97;;;1.30;;
12385;SDS011;6257;57.634;18.310;2023-01-29T02:26:27;3.47;;;1.27;;
12385;SDS011;6257;57.634;18.310;2023-01-29T02:29:07;4.30;;;1.50;;
12385;SDS011;6257;57.634;18.310;2023-01-29T02:31:56;3.30;;;1.30;;
12385;SDS011;6257;57.634;18.310;2023-01-29T02:34:36;3.13;;;1.30;;
12385;SDS011;6257;57.634;18.310;2023-01-29T02:37:25;2.43;;;1.20;;
12385;SDS011;6257;57.634;18.310;2023-01-29T02:40:02;2.37;;;1.23;;
12385;SDS011;6257;57.634;18.310;2023-01-29T02:42:37;2.57;;;1.30;;
12385;SDS011;6257;57.634;18.310;2023-01-29T02:45:12;5.93;;;1.37;;
12385;SDS011;6257;57.634;18.310;2023-01-29T02:47:44;3.80;;;1.10;;
12385;SDS011;6257;57.634;18.310;2023-01-29T02:50:16;4.23;;;1.33;;
12385;SDS011;6257;57.634;18.310;2023-01-29T02:52:49;4.07;;;1.27;;
12385;SDS011;6257;57.634;18.310;2023-01-29T02:55:27;4.53;;;1.30;;
12385;SDS011;6257;57.634;18.310;2023-01-29T02:58:02;3.60;;;1.30;;
12385;SDS011;6257;57.634;18.310;2023-01-29T03:00:37;2.97;;;1.33;;
12385;SDS011;6257;57.634;18.310;2023-01-29T03:03:07;3.33;;;1.37;;
12385;SDS011;6257;57.634;18.310;2023-01-29T03:05:41;5.33;;;1.37;;
12385;SDS011;6257;57.634;18.310;2023-01-29T03:08:16;2.47;;;1.20;;
12385;SDS011;6257;57.634;18.310;2023-01-29T03:10:47;4.10;;;1.10;;
12385;SDS011;6257;57.634;18.310;2023-01-29T03:13:19;2.73;;;1.13;;
12385;SDS011;6257;57.634;18.310;2023-01-29T03:15:54;2.67;;;1.33;;
12385;SDS011;6257;57.634;18.310;2023-01-29T03:18:29;4.23;;;1.30;;
12385;SDS011;6257;57.634;18.310;2023-01-29T03:21:02;4.77;;;1.60;;
12385;SDS011;6257;57.634;18.310;2023-01-29T03:23:54;6.50;;;1.63;;
12385;SDS011;6257;57.634;18.310;2023-01-29T03:26:40;3.87;;;1.30;;
12385;SDS011;6257;57.634;18.310;2023-01-29T03:29:26;3.77;;;1.33;;
12385;SDS011;6257;57.634;18.310;2023-01-29T03:32:15;3.47;;;1.30;;
12385;SDS011;6257;57.634;18.310;2023-01-29T03:34:45;3.93;;;1.23;;
12385;SDS011;6257;57.634;18.310;2023-01-29T03:37:17;3.07;;;1.30;;
12385;SDS011;6257;57.634;18.310;2023-01-29T03:39:47;5.97;;;1.60;;
12385;SDS011;6257;57.634;18.310;2023-01-29T03:42:16;4.00;;;1.30;;
12385;SDS011;6257;57.634;18.310;2023-01-29T03:44:52;4.30;;;1.10;;
12385;SDS011;6257;57.634;18.310;2023-01-29T03:47:26;3.67;;;1.43;;
12385;SDS011;6257;57.634;18.310;2023-01-29T03:50:05;3.07;;;1.40;;
12385;SDS011;6257;57.634;18.310;2023-01-29T03:52:38;3.87;;;1.50;;
12385;SDS011;6257;57.634;18.310;2023-01-29T03:55:12;5.93;;;1.80;;
12385;SDS011;6257;57.634;18.310;2023-01-29T03:57:44;4.87;;;1.30;;
12385;SDS011;6257;57.634;18.310;2023-01-29T04:00:19;4.20;;;1.20;;
12385;SDS011;6257;57.634;18.310;2023-01-29T04:02:51;6.07;;;1.30;;
12385;SDS011;6257;57.634;18.310;2023-01-29T04:05:27;5.80;;;1.37;;
12385;SDS011;6257;57.634;18.310;2023-01-29T04:07:59;3.67;;;1.37;;
12385;SDS011;6257;57.634;18.310;2023-01-29T04:10:30;5.83;;;1.50;;
12385;SDS011;6257;57.634;18.310;2023-01-29T04:13:00;5.10;;;1.20;;
12385;SDS011;6257;57.634;18.310;2023-01-29T04:15:33;6.67;;;1.77;;
12385;SDS011;6257;57.634;18.310;2023-01-29T04:18:06;4.60;;;1.40;;
12385;SDS011;6257;57.634;18.310;2023-01-29T04:20:34;4.07;;;1.23;;
12385;SDS011;6257;57.634;18.310;2023-01-29T04:23:04;6.33;;;1.57;;
12385;SDS011;6257;57.634;18.310;2023-01-29T04:25:34;4.03;;;1.43;;
12385;SDS011;6257;57.634;18.310;2023-01-29T04:28:13;7.30;;;1.53;;
12385;SDS011;6257;57.634;18.310;2023-01-29T04:30:49;4.60;;;1.03;;
12385;SDS011;6257;57.634;18.310;2023-01-29T04:33:24;3.33;;;1.17;;
12385;SDS011;6257;57.634;18.310;2023-01-29T04:36:02;3.40;;;1.20;;
12385;SDS011;6257;57.634;18.310;2023-01-29T04:38:46;8.63;;;1.57;;
12385;SDS011;6257;57.634;18.310;2023-01-29T04:41:23;7.90;;;1.43;;
12385;SDS011;6257;57.634;18.310;2023-01-29T04:43:57;6.67;;;1.40;;
12385;SDS011;6257;57.634;18.310;2023-01-29T04:46:32;5.57;;;1.57;;
12385;SDS011;6257;57.634;18.310;2023-01-29T04:49:11;4.50;;;1.40;;
12385;SDS011;6257;57.634;18.310;2023-01-29T04:51:46;5.07;;;1.60;;
12385;SDS011;6257;57.634;18.310;2023-01-29T04:54:22;4.33;;;1.23;;
12385;SDS011;6257;57.634;18.310;2023-01-29T04:57:01;4.90;;;1.30;;
12385;SDS011;6257;57.634;18.310;2023-01-29T04:59:37;6.67;;;1.47;;
12385;SDS011;6257;57.634;18.310;2023-01-29T05:02:08;6.37;;;1.80;;
12385;SDS011;6257;57.634;18.310;2023-01-29T05:04:38;3.67;;;1.40;;
12385;SDS011;6257;57.634;18.310;2023-01-29T05:07:07;5.83;;;1.70;;
12385;SDS011;6257;57.634;18.310;2023-01-29T05:09:38;4.70;;;1.20;;
12385;SDS011;6257;57.634;18.310;2023-01-29T05:12:08;5.93;;;1.70;;
12385;SDS011;6257;57.634;18.310;2023-01-29T05:14:37;5.83;;;1.67;;
12385;SDS011;6257;57.634;18.310;2023-01-29T05:17:08;3.63;;;1.50;;
12385;SDS011;6257;57.634;18.310;2023-01-29T05:19:41;4.43;;;1.07;;
12385;SDS011;6257;57.634;18.310;2023-01-29T05:22:08;4.33;;;1.30;;
12385;SDS011;6257;57.634;18.310;2023-01-29T05:24:37;4.60;;;1.23;;
12385;SDS011;6257;57.634;18.310;2023-01-29T05:27:04;3.57;;;1.00;;
12385;SDS011;6257;57.634;18.310;2023-01-29T05:29:49;5.60;;;1.10;;
12385;SDS011;6257;57.634;18.310;2023-01-29T05:32:17;4.60;;;1.20;;
12385;SDS011;6257;57.634;18.310;2023-01-29T05:34:45;4.90;;;1.10;;
12385;SDS011;6257;57.634;18.310;2023-01-29T05:37:12;6.23;;;1.23;;
12385;SDS011;6257;57.634;18.310;2023-01-29T05:39:39;5.60;;;1.30;;
12385;SDS011;6257;57.634;18.310;2023-01-29T05:42:06;4.03;;;1.37;;
12385;SDS011;6257;57.634;18.310;2023-01-29T05:44:33;7.93;;;1.60;;
12385;SDS011;6257;57.634;18.310;2023-01-29T05:47:00;3.93;;;1.53;;
12385;SDS011;6257;57.634;18.310;2023-01-29T05:49:27;3.07;;;1.27;;
12385;SDS011;6257;57.634;18.310;2023-01-29T05:51:56;4.50;;;1.33;;
12385;SDS011;6257;57.634;18.310;2023-01-29T05:54:23;7.23;;;1.40;;
12385;SDS011;6257;57.634;18.310;2023-01-29T05:56:50;5.23;;;1.30;;
12385;SDS011;6257;57.634;18.310;2023-01-29T05:59:17;5.47;;;1.50;;
12385;SDS011;6257;57.634;18.310;2023-01-29T06:01:44;5.53;;;1.30;;
12385;SDS011;6257;57.634;18.310;2023-01-29T06:04:11;6.93;;;1.80;;
12385;SDS011;6257;57.634;18.310;2023-01-29T06:06:38;5.57;;;1.30;;
12385;SDS011;6257;57.634;18.310;2023-01-29T06:09:08;3.93;;;1.00;;
12385;SDS011;6257;57.634;18.310;2023-01-29T06:11:36;2.77;;;1.30;;
12385;SDS011;6257;57.634;18.310;2023-01-29T06:14:03;4.53;;;1.53;;
12385;SDS011;6257;57.634;18.310;2023-01-29T06:16:30;3.17;;;1.20;;
12385;SDS011;6257;57.634;18.310;2023-01-29T06:18:57;7.10;;;2.00;;
12385;SDS011;6257;57.634;18.310;2023-01-29T06:21:24;7.57;;;1.20;;
12385;SDS011;6257;57.634;18.310;2023-01-29T06:23:51;4.03;;;1.53;;
12385;SDS011;6257;57.634;18.310;2023-01-29T06:26:19;6.10;;;1.50;;
12385;SDS011;6257;57.634;18.310;2023-01-29T06:28:47;5.57;;;1.40;;
12385;SDS011;6257;57.634;18.310;2023-01-29T06:31:15;4.07;;;1.50;;
12385;SDS011;6257;57.634;18.310;2023-01-29T06:33:42;4.47;;;1.40;;
12385;SDS011;6257;57.634;18.310;2023-01-29T06:36:09;6.33;;;1.57;;
12385;SDS011;6257;57.634;18.310;2023-01-29T06:38:36;5.97;;;1.30;;
12385;SDS011;6257;57.634;18.310;2023-01-29T06:41:07;5.87;;;1.50;;
12385;SDS011;6257;57.634;18.310;2023-01-29T06:43:36;6.57;;;1.70;;
12385;SDS011;6257;57.634;18.310;2023-01-29T06:46:05;4.83;;;1.40;;
12385;SDS011;6257;57.634;18.310;2023-01-29T06:48:33;5.27;;;1.70;;
12385;SDS011;6257;57.634;18.310;2023-01-29T06:51:01;4.77;;;1.20;;
12385;SDS011;6257;57.634;18.310;2023-01-29T06:53:29;5.27;;;1.53;;
12385;SDS011;6257;57.634;18.310;2023-01-29T06:55:56;6.07;;;1.60;;
12385;SDS011;6257;57.634;18.310;2023-01-29T06:58:23;6.00;;;1.37;;
12385;SDS011;6257;57.634;18.310;2023-01-29T07:00:51;5.80;;;1.33;;
12385;SDS011;6257;57.634;18.310;2023-01-29T07:03:18;5.80;;;1.40;;
12385;SDS011;6257;57.634;18.310;2023-01-29T07:05:49;5.40;;;1.20;;
12385;SDS011;6257;57.634;18.310;2023-01-29T07:08:17;5.07;;;1.47;;
12385;SDS011;6257;57.634;18.310;2023-01-29T07:10:46;6.07;;;1.30;;
12385;SDS011;6257;57.634;18.310;2023-01-29T07:13:13;5.97;;;1.40;;
12385;SDS011;6257;57.634;18.310;2023-01-29T07:15:41;5.47;;;1.40;;
12385;SDS011;6257;57.634;18.310;2023-01-29T07:18:10;6.57;;;1.47;;
12385;SDS011;6257;57.634;18.310;2023-01-29T07:20:37;3.27;;;1.23;;
12385;SDS011;6257;57.634;18.310;2023-01-29T07:23:05;5.73;;;1.50;;
12385;SDS011;6257;57.634;18.310;2023-01-29T07:25:34;4.93;;;1.43;;
12385;SDS011;6257;57.634;18.310;2023-01-29T07:28:01;5.20;;;1.53;;
12385;SDS011;6257;57.634;18.310;2023-01-29T07:30:29;4.27;;;1.70;;
12385;SDS011;6257;57.634;18.310;2023-01-29T07:32:59;8.20;;;1.30;;
12385;SDS011;6257;57.634;18.310;2023-01-29T07:35:29;6.47;;;1.33;;
12385;SDS011;6257;57.634;18.310;2023-01-29T07:37:56;6.30;;;1.23;;
12385;SDS011;6257;57.634;18.310;2023-01-29T07:40:23;6.93;;;1.43;;
12385;SDS011;6257;57.634;18.310;2023-01-29T07:42:50;5.53;;;1.30;;
12385;SDS011;6257;57.634;18.310;2023-01-29T07:45:23;5.17;;;1.40;;
12385;SDS011;6257;57.634;18.310;2023-01-29T07:47:50;10.30;;;1.23;;
12385;SDS011;6257;57.634;18.310;2023-01-29T07:50:18;5.57;;;1.50;;
12385;SDS011;6257;57.634;18.310;2023-01-29T07:52:48;7.57;;;1.10;;
12385;SDS011;6257;57.634;18.310;2023-01-29T07:55:15;4.33;;;1.40;;
12385;SDS011;6257;57.634;18.310;2023-01-29T07:57:43;6.47;;;1.30;;
12385;SDS011;6257;57.634;18.310;2023-01-29T08:00:10;6.47;;;1.40;;
12385;SDS011;6257;57.634;18.310;2023-01-29T08:02:38;4.37;;;1.20;;
12385;SDS011;6257;57.634;18.310;2023-01-29T08:05:05;4.20;;;1.57;;
12385;SDS011;6257;57.634;18.310;2023-01-29T08:07:33;6.07;;;1.70;;
12385;SDS011;6257;57.634;18.310;2023-01-29T08:10:02;10.77;;;2.17;;
12385;SDS011;6257;57.634;18.310;2023-01-29T08:12:29;5.83;;;2.47;;
12385;SDS011;6257;57.634;18.310;2023-01-29T08:14:57;6.90;;;1.40;;
12385;SDS011;6257;57.634;18.310;2023-01-29T08:17:24;6.40;;;1.60;;
12385;SDS011;6257;57.634;18.310;2023-01-29T08:19:51;3.50;;;1.00;;
12385;SDS011;6257;57.634;18.310;2023-01-29T08:22:18;7.00;;;1.40;;
12385;SDS011;6257;57.634;18.310;2023-01-29T08:24:44;7.10;;;1.20;;
12385;SDS011;6257;57.634;18.310;2023-01-29T08:27:13;5.80;;;1.20;;
12385;SDS011;6257;57.634;18.310;2023-01-29T08:29:40;5.73;;;1.47;;
12385;SDS011;6257;57.634;18.310;2023-01-29T08:32:08;6.80;;;1.30;;
12385;SDS011;6257;57.634;18.310;2023-01-29T08:34:36;8.00;;;1.80;;
12385;SDS011;6257;57.634;18.310;2023-01-29T08:37:03;4.90;;;1.20;;
12385;SDS011;6257;57.634;18.310;2023-01-29T08:39:30;7.10;;;1.30;;
12385;SDS011;6257;57.634;18.310;2023-01-29T08:41:57;5.67;;;1.27;;
12385;SDS011;6257;57.634;18.310;2023-01-29T08:44:25;5.80;;;1.17;;
12385;SDS011;6257;57.634;18.310;2023-01-29T08:46:52;4.73;;;1.20;;
12385;SDS011;6257;57.634;18.310;2023-01-29T08:49:19;7.47;;;1.27;;
12385;SDS011;6257;57.634;18.310;2023-01-29T08:51:46;6.70;;;1.20;;
12385;SDS011;6257;57.634;18.310;2023-01-29T08:54:15;4.03;;;1.00;;
12385;SDS011;6257;57.634;18.310;2023-01-29T08:56:42;6.83;;;1.60;;
12385;SDS011;6257;57.634;18.310;2023-01-29T08:59:09;3.17;;;1.00;;
12385;SDS011;6257;57.634;18.310;2023-01-29T09:01:38;3.87;;;1.70;;
12385;SDS011;6257;57.634;18.310;2023-01-29T09:04:05;6.40;;;1.57;;
12385;SDS011;6257;57.634;18.310;2023-01-29T09:06:33;6.17;;;1.70;;
12385;SDS011;6257;57.634;18.310;2023-01-29T09:09:00;4.60;;;1.40;;
12385;SDS011;6257;57.634;18.310;2023-01-29T09:11:27;6.60;;;1.40;;
12385;SDS011;6257;57.634;18.310;2023-01-29T09:13:54;9.70;;;1.70;;
12385;SDS011;6257;57.634;18.310;2023-01-29T09:16:21;5.47;;;1.33;;
12385;SDS011;6257;57.634;18.310;2023-01-29T09:18:49;6.70;;;1.30;;
12385;SDS011;6257;57.634;18.310;2023-01-29T09:21:18;9.37;;;1.60;;
12385;SDS011;6257;57.634;18.310;2023-01-29T09:23:45;5.23;;;1.40;;
12385;SDS011;6257;57.634;18.310;2023-01-29T09:26:12;3.67;;;1.90;;
12385;SDS011;6257;57.634;18.310;2023-01-29T09:28:39;4.27;;;1.10;;
12385;SDS011;6257;57.634;18.310;2023-01-29T09:31:06;8.30;;;1.30;;
12385;SDS011;6257;57.634;18.310;2023-01-29T09:33:33;7.63;;;1.20;;
12385;SDS011;6257;57.634;18.310;2023-01-29T09:36:02;8.77;;;1.50;;
12385;SDS011;6257;57.634;18.310;2023-01-29T09:38:30;7.07;;;1.47;;
12385;SDS011;6257;57.634;18.310;2023-01-29T09:40:59;8.80;;;1.73;;
12385;SDS011;6257;57.634;18.310;2023-01-29T09:43:38;5.47;;;1.40;;
12385;SDS011;6257;57.634;18.310;2023-01-29T09:46:14;6.97;;;1.43;;
12385;SDS011;6257;57.634;18.310;2023-01-29T09:48:44;5.70;;;1.33;;
12385;SDS011;6257;57.634;18.310;2023-01-29T09:51:22;8.87;;;1.33;;
12385;SDS011;6257;57.634;18.310;2023-01-29T09:53:54;10.07;;;1.30;;
12385;SDS011;6257;57.634;18.310;2023-01-29T09:56:28;6.50;;;1.70;;
12385;SDS011;6257;57.634;18.310;2023-01-29T09:58:56;8.10;;;1.40;;
12385;SDS011;6257;57.634;18.310;2023-01-29T10:01:26;7.57;;;1.57;;
12385;SDS011;6257;57.634;18.310;2023-01-29T10:04:19;7.03;;;1.50;;
12385;SDS011;6257;57.634;18.310;2023-01-29T10:07:11;6.17;;;1.40;;
12385;SDS011;6257;57.634;18.310;2023-01-29T10:09:58;7.90;;;1.30;;
12385;SDS011;6257;57.634;18.310;2023-01-29T10:12:52;7.27;;;2.27;;
12385;SDS011;6257;57.634;18.310;2023-01-29T10:15:36;7.57;;;2.80;;
12385;SDS011;6257;57.634;18.310;2023-01-29T10:21:07;6.87;;;1.80;;
12385;SDS011;6257;57.634;18.310;2023-01-29T10:23:46;4.53;;;1.30;;
12385;SDS011;6257;57.634;18.310;2023-01-29T10:26:16;6.67;;;1.57;;
12385;SDS011;6257;57.634;18.310;2023-01-29T10:28:49;5.70;;;1.30;;
12385;SDS011;6257;57.634;18.310;2023-01-29T10:31:22;8.20;;;1.57;;
12385;SDS011;6257;57.634;18.310;2023-01-29T10:33:53;4.40;;;1.40;;
12385;SDS011;6257;57.634;18.310;2023-01-29T10:36:21;8.00;;;1.80;;
12385;SDS011;6257;57.634;18.310;2023-01-29T10:38:54;8.47;;;1.43;;
12385;SDS011;6257;57.634;18.310;2023-01-29T10:41:25;6.50;;;1.87;;
12385;SDS011;6257;57.634;18.310;2023-01-29T10:44:04;10.27;;;1.90;;
12385;SDS011;6257;57.634;18.310;2023-01-29T10:46:43;8.57;;;1.80;;
12385;SDS011;6257;57.634;18.310;2023-01-29T10:49:24;5.27;;;1.30;;
12385;SDS011;6257;57.634;18.310;2023-01-29T10:52:12;7.13;;;1.37;;
12385;SDS011;6257;57.634;18.310;2023-01-29T10:54:55;7.00;;;1.40;;
12385;SDS011;6257;57.634;18.310;2023-01-29T10:57:35;4.30;;;1.00;;
12385;SDS011;6257;57.634;18.310;2023-01-29T11:00:15;5.13;;;1.43;;
12385;SDS011;6257;57.634;18.310;2023-01-29T11:02:47;8.93;;;1.60;;
12385;SDS011;6257;57.634;18.310;2023-01-29T11:05:18;6.63;;;1.43;;
12385;SDS011;6257;57.634;18.310;2023-01-29T11:07:48;8.30;;;1.60;;
12385;SDS011;6257;57.634;18.310;2023-01-29T11:10:27;5.63;;;1.07;;
12385;SDS011;6257;57.634;18.310;2023-01-29T11:12:57;7.33;;;1.27;;
12385;SDS011;6257;57.634;18.310;2023-01-29T11:15:25;3.53;;;1.10;;
12385;SDS011;6257;57.634;18.310;2023-01-29T11:18:06;5.23;;;1.60;;
12385;SDS011;6257;57.634;18.310;2023-01-29T11:20:38;5.07;;;1.10;;
12385;SDS011;6257;57.634;18.310;2023-01-29T11:23:17;8.37;;;1.43;;
12385;SDS011;6257;57.634;18.310;2023-01-29T11:25:53;7.47;;;1.27;;
12385;SDS011;6257;57.634;18.310;2023-01-29T11:28:34;7.50;;;1.43;;
12385;SDS011;6257;57.634;18.310;2023-01-29T11:31:03;11.10;;;1.50;;
12385;SDS011;6257;57.634;18.310;2023-01-29T11:33:41;8.73;;;1.43;;
12385;SDS011;6257;57.634;18.310;2023-01-29T11:36:24;4.80;;;1.10;;
12385;SDS011;6257;57.634;18.310;2023-01-29T11:41:49;5.10;;;1.10;;
12385;SDS011;6257;57.634;18.310;2023-01-29T11:44:29;4.07;;;1.13;;
12385;SDS011;6257;57.634;18.310;2023-01-29T11:46:59;5.53;;;1.03;;
12385;SDS011;6257;57.634;18.310;2023-01-29T11:49:38;6.20;;;1.33;;
12385;SDS011;6257;57.634;18.310;2023-01-29T11:52:10;6.10;;;1.20;;
12385;SDS011;6257;57.634;18.310;2023-01-29T11:54:39;4.60;;;1.13;;
12385;SDS011;6257;57.634;18.310;2023-01-29T11:57:24;5.20;;;0.93;;
12385;SDS011;6257;57.634;18.310;2023-01-29T11:59:54;7.00;;;1.00;;
12385;SDS011;6257;57.634;18.310;2023-01-29T12:02:31;8.17;;;1.50;;
12385;SDS011;6257;57.634;18.310;2023-01-29T12:05:03;4.57;;;1.00;;
12385;SDS011;6257;57.634;18.310;2023-01-29T12:07:32;6.67;;;1.33;;
12385;SDS011;6257;57.634;18.310;2023-01-29T12:10:00;4.47;;;1.00;;
12385;SDS011;6257;57.634;18.310;2023-01-29T12:12:33;4.67;;;1.00;;
12385;SDS011;6257;57.634;18.310;2023-01-29T12:15:04;4.30;;;1.03;;
12385;SDS011;6257;57.634;18.310;2023-01-29T12:17:44;3.90;;;0.97;;
12385;SDS011;6257;57.634;18.310;2023-01-29T12:20:19;7.07;;;1.40;;
12385;SDS011;6257;57.634;18.310;2023-01-29T12:22:52;4.73;;;1.20;;
12385;SDS011;6257;57.634;18.310;2023-01-29T12:25:29;5.07;;;1.23;;
12385;SDS011;6257;57.634;18.310;2023-01-29T12:28:07;4.43;;;0.90;;
12385;SDS011;6257;57.634;18.310;2023-01-29T12:30:49;4.87;;;1.23;;
12385;SDS011;6257;57.634;18.310;2023-01-29T12:33:28;2.43;;;0.90;;
12385;SDS011;6257;57.634;18.310;2023-01-29T12:36:06;2.80;;;1.17;;
12385;SDS011;6257;57.634;18.310;2023-01-29T12:38:39;6.23;;;1.00;;
12385;SDS011;6257;57.634;18.310;2023-01-29T12:41:11;2.00;;;0.67;;
12385;SDS011;6257;57.634;18.310;2023-01-29T12:44:00;5.43;;;1.30;;
12385;SDS011;6257;57.634;18.310;2023-01-29T12:46:33;2.67;;;0.77;;
12385;SDS011;6257;57.634;18.310;2023-01-29T12:49:09;2.63;;;0.87;;
12385;SDS011;6257;57.634;18.310;2023-01-29T12:51:42;2.10;;;0.60;;
12385;SDS011;6257;57.634;18.310;2023-01-29T12:54:18;2.33;;;1.00;;
12385;SDS011;6257;57.634;18.310;2023-01-29T12:56:52;1.53;;;0.70;;
12385;SDS011;6257;57.634;18.310;2023-01-29T12:59:27;2.00;;;0.50;;
12385;SDS011;6257;57.634;18.310;2023-01-29T13:01:58;4.90;;;0.90;;
12385;SDS011;6257;57.634;18.310;2023-01-29T13:04:32;1.57;;;0.60;;
12385;SDS011;6257;57.634;18.310;2023-01-29T13:07:06;2.10;;;0.80;;
12385;SDS011;6257;57.634;18.310;2023-01-29T13:09:40;4.00;;;0.63;;
12385;SDS011;6257;57.634;18.310;2023-01-29T13:12:11;3.37;;;0.60;;
12385;SDS011;6257;57.634;18.310;2023-01-29T13:14:44;3.03;;;0.87;;
12385;SDS011;6257;57.634;18.310;2023-01-29T13:17:15;1.40;;;0.60;;
12385;SDS011;6257;57.634;18.310;2023-01-29T13:19:48;3.10;;;0.80;;
12385;SDS011;6257;57.634;18.310;2023-01-29T13:22:19;2.77;;;0.70;;
12385;SDS011;6257;57.634;18.310;2023-01-29T13:24:50;2.63;;;0.63;;
12385;SDS011;6257;57.634;18.310;2023-01-29T13:27:20;2.00;;;0.57;;
12385;SDS011;6257;57.634;18.310;2023-01-29T13:29:51;1.77;;;0.30;;
12385;SDS011;6257;57.634;18.310;2023-01-29T13:32:20;1.97;;;0.43;;
12385;SDS011;6257;57.634;18.310;2023-01-29T13:34:53;3.40;;;0.67;;
12385;SDS011;6257;57.634;18.310;2023-01-29T13:37:24;1.07;;;0.40;;
12385;SDS011;6257;57.634;18.310;2023-01-29T13:39:55;2.07;;;0.47;;
12385;SDS011;6257;57.634;18.310;2023-01-29T13:42:25;3.30;;;0.70;;
12385;SDS011;6257;57.634;18.310;2023-01-29T13:45:06;0.87;;;0.30;;
12385;SDS011;6257;57.634;18.310;2023-01-29T13:47:42;1.10;;;0.50;;
12385;SDS011;6257;57.634;18.310;2023-01-29T13:50:12;2.47;;;0.67;;
12385;SDS011;6257;57.634;18.310;2023-01-29T13:52:45;2.93;;;0.60;;
12385;SDS011;6257;57.634;18.310;2023-01-29T13:55:21;1.23;;;0.43;;
12385;SDS011;6257;57.634;18.310;2023-01-29T13:57:55;1.57;;;0.60;;
12385;SDS011;6257;57.634;18.310;2023-01-29T14:00:47;0.63;;;0.37;;
12385;SDS011;6257;57.634;18.310;2023-01-29T14:06:10;2.73;;;0.40;;
12385;SDS011;6257;57.634;18.310;2023-01-29T14:08:38;2.57;;;0.60;;
12385;SDS011;6257;57.634;18.310;2023-01-29T14:11:27;1.10;;;0.33;;
12385;SDS011;6257;57.634;18.310;2023-01-29T14:14:00;1.30;;;0.40;;
12385;SDS011;6257;57.634;18.310;2023-01-29T14:16:35;0.77;;;0.30;;
12385;SDS011;6257;57.634;18.310;2023-01-29T14:19:03;0.53;;;0.30;;
12385;SDS011;6257;57.634;18.310;2023-01-29T14:21:32;2.23;;;0.50;;
12385;SDS011;6257;57.634;18.310;2023-01-29T14:24:07;0.83;;;0.40;;
12385;SDS011;6257;57.634;18.310;2023-01-29T14:26:41;3.60;;;0.50;;
12385;SDS011;6257;57.634;18.310;2023-01-29T14:29:18;1.33;;;0.30;;
12385;SDS011;6257;57.634;18.310;2023-01-29T14:31:51;0.87;;;0.40;;
12385;SDS011;6257;57.634;18.310;2023-01-29T14:34:22;2.33;;;0.30;;
12385;SDS011;6257;57.634;18.310;2023-01-29T14:36:52;2.17;;;0.40;;
12385;SDS011;6257;57.634;18.310;2023-01-29T14:39:24;1.40;;;0.40;;
12385;SDS011;6257;57.634;18.310;2023-01-29T14:41:56;3.53;;;0.40;;
12385;SDS011;6257;57.634;18.310;2023-01-29T14:47:24;1.27;;;1.00;;
12385;SDS011;6257;57.634;18.310;2023-01-29T14:53:12;2.37;;;1.10;;
12385;SDS011;6257;57.634;18.310;2023-01-29T14:55:44;0.30;;;0.30;;
12385;SDS011;6257;57.634;18.310;2023-01-29T14:58:17;1.43;;;0.90;;
12385;SDS011;6257;57.634;18.310;2023-01-29T15:00:55;2.43;;;0.60;;
12385;SDS011;6257;57.634;18.310;2023-01-29T15:03:28;0.60;;;0.47;;
12385;SDS011;6257;57.634;18.310;2023-01-29T15:06:03;0.53;;;0.40;;
12385;SDS011;6257;57.634;18.310;2023-01-29T15:08:33;1.13;;;0.77;;
12385;SDS011;6257;57.634;18.310;2023-01-29T15:11:06;2.50;;;0.63;;
12385;SDS011;6257;57.634;18.310;2023-01-29T15:13:56;2.23;;;0.60;;
12385;SDS011;6257;57.634;18.310;2023-01-29T15:16:34;2.17;;;0.40;;
12385;SDS011;6257;57.634;18.310;2023-01-29T15:19:17;1.27;;;0.50;;
12385;SDS011;6257;57.634;18.310;2023-01-29T15:24:35;1.97;;;0.50;;
12385;SDS011;6257;57.634;18.310;2023-01-29T15:27:04;1.43;;;0.50;;
12385;SDS011;6257;57.634;18.310;2023-01-29T15:29:35;2.37;;;0.50;;
12385;SDS011;6257;57.634;18.310;2023-01-29T15:32:04;1.53;;;0.70;;
12385;SDS011;6257;57.634;18.310;2023-01-29T15:34:33;1.70;;;0.77;;
12385;SDS011;6257;57.634;18.310;2023-01-29T15:37:01;0.60;;;0.57;;